createdAt,value
2017-08-12T00:01:03.144Z,100616.33
2017-08-12T00:03:31.836Z,100621.67
2017-08-12T00:06:00.526Z,100622.83
2017-08-12T00:08:29.194Z,100625.75
2017-08-12T00:10:57.886Z,100626.16
2017-08-12T00:13:26.663Z,100628.47
2017-08-12T00:15:55.315Z,100635.62
2017-08-12T00:18:24.038Z,100634.34
2017-08-12T00:20:52.980Z,100624.92
2017-08-12T00:23:21.669Z,100615.11
2017-08-12T00:25:50.415Z,100618.06
2017-08-12T00:28:19.087Z,100609.70
2017-08-12T00:30:47.807Z,100609.88
2017-08-12T00:33:18.174Z,100614.05
2017-08-12T00:35:46.900Z,100616.30
2017-08-12T00:38:15.600Z,100628.47
2017-08-12T00:40:44.339Z,100627.81
2017-08-12T00:43:13.022Z,100637.81
2017-08-12T00:45:41.828Z,100646.59
2017-08-12T00:48:10.535Z,100659.53
2017-08-12T00:50:39.369Z,100666.47
2017-08-12T00:53:08.483Z,100658.41
2017-08-12T00:55:38.134Z,100652.98
2017-08-12T00:58:06.955Z,100644.28
2017-08-12T01:00:36.284Z,100633.52
2017-08-12T01:03:04.964Z,100630.56
2017-08-12T01:05:33.673Z,100621.16
2017-08-12T01:08:04.111Z,100609.64
2017-08-12T01:10:32.880Z,100600.11
2017-08-12T01:13:04.401Z,100587.45
2017-08-12T01:15:33.039Z,100590.94
2017-08-12T01:18:01.818Z,100589.30
2017-08-12T01:20:30.530Z,100597.00
2017-08-12T01:23:05.262Z,100602.59
2017-08-12T01:25:33.898Z,100601.00
2017-08-12T01:28:02.671Z,100606.28
2017-08-12T01:30:31.335Z,100611.49
2017-08-12T01:33:03.606Z,100612.84
2017-08-12T01:35:32.291Z,100622.78
2017-08-12T01:38:00.955Z,100621.73
2017-08-12T01:40:29.648Z,100624.09
2017-08-12T01:43:00.544Z,100624.56
2017-08-12T01:45:29.504Z,100624.84
2017-08-12T01:47:58.171Z,100624.48
2017-08-12T01:50:26.950Z,100626.02
2017-08-12T01:52:55.699Z,100628.45
2017-08-12T01:55:24.435Z,100624.95
2017-08-12T01:57:53.069Z,100627.13
2017-08-12T02:00:21.882Z,100623.11
2017-08-12T02:02:50.611Z,100624.84
2017-08-12T02:05:19.706Z,100625.01
2017-08-12T02:07:48.383Z,100626.11
2017-08-12T02:10:17.160Z,100624.13
2017-08-12T02:12:45.790Z,100633.34
2017-08-12T02:15:15.510Z,100629.92
2017-08-12T02:17:44.237Z,100632.21
2017-08-12T02:20:12.971Z,100625.97
2017-08-12T02:22:41.603Z,100623.02
2017-08-12T02:25:10.618Z,100620.62
2017-08-12T02:27:39.350Z,100615.72
2017-08-12T02:30:08.078Z,100622.59
2017-08-12T02:32:36.763Z,100622.04
2017-08-12T02:35:05.511Z,100623.00
2017-08-12T02:37:34.247Z,100621.20
2017-08-12T02:40:03.780Z,100620.37
2017-08-12T02:42:32.562Z,100623.48
2017-08-12T02:45:01.267Z,100612.27
2017-08-12T02:47:30.015Z,100623.48
2017-08-12T02:49:58.876Z,100611.84
2017-08-12T02:52:27.523Z,100615.78
2017-08-12T02:54:56.208Z,100608.16
2017-08-12T02:57:24.933Z,100606.66
2017-08-12T02:59:53.665Z,100601.55
2017-08-12T03:02:22.431Z,100608.17
2017-08-12T03:04:51.361Z,100609.11
2017-08-12T03:07:20.366Z,100599.64
2017-08-12T03:09:49.122Z,100608.80
2017-08-12T03:12:17.840Z,100609.98
2017-08-12T03:14:47.443Z,100606.55
2017-08-12T03:17:16.160Z,100606.72
2017-08-12T03:19:44.823Z,100606.42
2017-08-12T03:22:13.497Z,100604.28
2017-08-12T03:24:42.185Z,100602.49
2017-08-12T03:27:10.893Z,100599.96
2017-08-12T03:29:39.535Z,100598.09
2017-08-12T03:32:08.278Z,100591.69
2017-08-12T03:34:37.000Z,100596.50
2017-08-12T03:37:05.704Z,100597.73
2017-08-12T03:39:34.392Z,100600.84
2017-08-12T03:42:04.104Z,100602.16
2017-08-12T03:44:32.815Z,100603.42
2017-08-12T03:47:01.580Z,100589.63
2017-08-12T03:49:31.407Z,100587.94
2017-08-12T03:52:00.119Z,100588.33
2017-08-12T03:54:28.830Z,100586.17
2017-08-12T03:56:57.552Z,100593.44
2017-08-12T03:59:26.205Z,100590.91
2017-08-12T04:01:54.908Z,100580.98
2017-08-12T04:04:23.629Z,100587.05
2017-08-12T04:06:52.376Z,100583.70
2017-08-12T04:09:21.318Z,100585.33
2017-08-12T04:11:50.008Z,100584.03
2017-08-12T04:14:18.778Z,100583.17
2017-08-12T04:16:47.490Z,100574.23
2017-08-12T04:19:17.175Z,100569.42
2017-08-12T04:21:45.903Z,100570.77
2017-08-12T04:24:14.392Z,100568.59
2017-08-12T04:26:43.364Z,100570.72
2017-08-12T04:29:12.071Z,100574.18
2017-08-12T04:31:42.857Z,100579.27
2017-08-12T04:34:11.586Z,100571.46
2017-08-12T04:36:40.363Z,100574.46
2017-08-12T04:39:09.135Z,100575.29
2017-08-12T04:41:37.813Z,100577.29
2017-08-12T04:44:06.559Z,100580.34
2017-08-12T04:46:35.279Z,100578.86
2017-08-12T04:49:03.989Z,100581.34
2017-08-12T04:51:32.698Z,100573.35
2017-08-12T04:54:01.410Z,100572.53
2017-08-12T04:56:30.093Z,100571.59
2017-08-12T04:58:58.866Z,100576.71
2017-08-12T05:01:27.563Z,100569.89
2017-08-12T05:03:56.266Z,100573.58
2017-08-12T05:06:25.765Z,100576.28
2017-08-12T05:08:54.591Z,100577.34
2017-08-12T05:11:23.243Z,100579.16
2017-08-12T05:13:52.009Z,100573.52
2017-08-12T05:16:20.700Z,100581.63
2017-08-12T05:18:49.363Z,100584.34
2017-08-12T05:21:18.134Z,100588.33
2017-08-12T05:23:47.029Z,100580.77
2017-08-12T05:26:15.788Z,100582.77
2017-08-12T05:28:44.373Z,100580.48
2017-08-12T05:31:13.137Z,100578.78
2017-08-12T05:33:41.764Z,100582.25
2017-08-12T05:36:10.484Z,100589.90
2017-08-12T05:38:39.168Z,100583.38
2017-08-12T05:41:07.885Z,100587.26
2017-08-12T05:43:36.586Z,100586.19
2017-08-12T05:46:05.266Z,100581.84
2017-08-12T05:48:34.009Z,100590.38
2017-08-12T05:51:03.133Z,100593.67
2017-08-12T05:53:31.851Z,100589.69
2017-08-12T05:56:00.534Z,100591.70
2017-08-12T05:58:29.267Z,100599.69
2017-08-12T06:00:58.021Z,100598.99
2017-08-12T06:03:26.672Z,100600.95
2017-08-12T06:05:56.460Z,100601.61
2017-08-12T06:08:25.174Z,100602.77
2017-08-12T06:10:53.921Z,100606.89
2017-08-12T06:13:22.618Z,100606.31
2017-08-12T06:15:51.357Z,100610.39
2017-08-12T06:18:20.085Z,100616.25
2017-08-12T06:20:49.064Z,100618.67
2017-08-12T06:23:17.726Z,100622.45
2017-08-12T06:25:46.457Z,100623.16
2017-08-12T06:28:15.142Z,100617.05
2017-08-12T06:30:43.812Z,100631.04
2017-08-12T06:33:12.527Z,100621.81
2017-08-12T06:35:41.838Z,100624.59
2017-08-12T06:38:10.539Z,100620.93
2017-08-12T06:40:39.196Z,100621.56
2017-08-12T06:43:07.970Z,100617.86
2017-08-12T06:45:36.741Z,100622.34
2017-08-12T06:48:05.785Z,100622.92
2017-08-12T06:50:34.429Z,100619.23
2017-08-12T06:53:03.572Z,100619.77
2017-08-12T06:55:33.239Z,100629.41
2017-08-12T06:58:01.985Z,100630.30
2017-08-12T07:00:30.682Z,100633.58
2017-08-12T07:03:02.739Z,100632.88
2017-08-12T07:05:33.042Z,100636.06
2017-08-12T07:08:01.716Z,100634.95
2017-08-12T07:10:30.452Z,100639.99
2017-08-12T07:13:00.318Z,100638.11
2017-08-12T07:15:29.081Z,100646.19
2017-08-12T07:17:57.848Z,100645.54
2017-08-12T07:20:26.552Z,100644.95
2017-08-12T07:22:55.321Z,100636.16
2017-08-12T07:25:24.061Z,100637.87
2017-08-12T07:27:52.800Z,100646.41
2017-08-12T07:30:21.456Z,100638.58
2017-08-12T07:32:50.246Z,100642.82
2017-08-12T07:35:18.956Z,100645.23
2017-08-12T07:37:47.707Z,100648.19
2017-08-12T07:40:16.485Z,100647.77
2017-08-12T07:42:45.224Z,100645.06
2017-08-12T07:45:13.921Z,100648.81
2017-08-12T07:47:42.407Z,100644.86
2017-08-12T07:50:12.053Z,100641.80
2017-08-12T07:52:40.854Z,100642.04
2017-08-12T07:55:09.756Z,100641.09
2017-08-12T07:57:38.443Z,100647.05
2017-08-12T08:00:07.153Z,100640.45
2017-08-12T08:02:36.206Z,100644.16
2017-08-12T08:05:05.825Z,100651.03
2017-08-12T08:07:34.547Z,100643.67
2017-08-12T08:10:03.280Z,100640.19
2017-08-12T08:12:31.937Z,100649.44
2017-08-12T08:15:00.669Z,100648.91
2017-08-12T08:17:29.306Z,100648.03
2017-08-12T08:19:58.004Z,100648.73
2017-08-12T08:22:26.701Z,100647.73
2017-08-12T08:24:55.458Z,100642.05
2017-08-12T08:27:24.188Z,100650.95
2017-08-12T08:29:52.846Z,100647.36
2017-08-12T08:32:21.558Z,100648.13
2017-08-12T08:34:50.215Z,100645.30
2017-08-12T08:37:18.933Z,100643.00
2017-08-12T08:39:47.592Z,100642.91
2017-08-12T08:42:16.307Z,100642.27
2017-08-12T08:44:45.100Z,100643.00
2017-08-12T08:47:13.791Z,100647.13
2017-08-12T08:49:43.417Z,100645.23
2017-08-12T08:52:12.117Z,100644.91
2017-08-12T08:54:40.868Z,100651.22
2017-08-12T08:57:09.538Z,100644.14
2017-08-12T08:59:38.356Z,100645.59
2017-08-12T09:02:07.069Z,100646.52
2017-08-12T09:04:35.762Z,100643.16
2017-08-12T09:07:04.581Z,100646.37
2017-08-12T09:09:33.361Z,100640.47
2017-08-12T09:12:02.236Z,100644.05
2017-08-12T09:14:30.938Z,100641.95
2017-08-12T09:16:59.734Z,100641.59
2017-08-12T09:19:28.429Z,100644.83
2017-08-12T09:21:57.293Z,100645.31
2017-08-12T09:24:25.988Z,100646.78
2017-08-12T09:26:54.711Z,100655.59
2017-08-12T09:29:23.409Z,100647.63
2017-08-12T09:31:52.173Z,100656.59
2017-08-12T09:34:20.982Z,100659.53
2017-08-12T09:36:49.693Z,100659.06
2017-08-12T09:39:18.406Z,100659.41
2017-08-12T09:41:47.168Z,100662.42
2017-08-12T09:44:15.923Z,100665.37
2017-08-12T09:46:44.575Z,100666.02
2017-08-12T09:49:13.298Z,100668.56
2017-08-12T09:51:42.310Z,100662.60
2017-08-12T09:54:12.705Z,100667.44
2017-08-12T09:56:41.490Z,100662.73
2017-08-12T09:59:10.182Z,100672.28
2017-08-12T10:01:38.830Z,100666.39
2017-08-12T10:04:07.579Z,100666.60
2017-08-12T10:06:36.302Z,100668.91
2017-08-12T10:09:04.517Z,100666.20
2017-08-12T10:11:33.662Z,100671.44
2017-08-12T10:14:02.385Z,100670.26
2017-08-12T10:16:31.097Z,100671.27
2017-08-12T10:19:00.713Z,100672.15
2017-08-12T10:21:29.552Z,100675.05
2017-08-12T10:23:58.271Z,100676.96
2017-08-12T10:26:27.122Z,100679.44
2017-08-12T10:28:55.845Z,100675.55
2017-08-12T10:31:24.593Z,100673.83
2017-08-12T10:33:53.387Z,100669.59
2017-08-12T10:36:22.084Z,100672.66
2017-08-12T10:38:50.896Z,100682.50
2017-08-12T10:41:19.584Z,100682.62
2017-08-12T10:43:48.311Z,100677.08
2017-08-12T10:46:17.039Z,100676.13
2017-08-12T10:48:45.785Z,100676.90
2017-08-12T10:51:14.534Z,100677.58
2017-08-12T10:53:43.360Z,100672.62
2017-08-12T10:56:12.133Z,100675.98
2017-08-12T10:58:40.836Z,100679.40
2017-08-12T11:01:09.597Z,100679.09
2017-08-12T11:03:38.309Z,100675.94
2017-08-12T11:06:07.100Z,100680.06
2017-08-12T11:08:35.857Z,100678.17
2017-08-12T11:11:04.579Z,100679.88
2017-08-12T11:13:33.348Z,100686.25
2017-08-12T11:16:02.173Z,100677.98
2017-08-12T11:18:30.853Z,100677.87
2017-08-12T11:20:59.615Z,100677.34
2017-08-12T11:23:28.408Z,100670.76
2017-08-12T11:25:56.820Z,100671.11
2017-08-12T11:28:25.636Z,100671.64
2017-08-12T11:30:55.126Z,100668.45
2017-08-12T11:33:23.888Z,100670.98
2017-08-12T11:35:52.491Z,100667.73
2017-08-12T11:38:21.266Z,100672.98
2017-08-12T11:40:49.924Z,100672.04
2017-08-12T11:43:18.646Z,100677.99
2017-08-12T11:45:47.617Z,100667.32
2017-08-12T11:48:16.346Z,100671.03
2017-08-12T11:50:44.840Z,100671.86
2017-08-12T11:53:13.504Z,100666.19
2017-08-12T11:55:42.356Z,100670.20
2017-08-12T11:58:11.008Z,100669.32
2017-08-12T12:03:09.144Z,100671.67
2017-08-12T12:05:38.126Z,100668.16
2017-08-12T12:08:06.944Z,100669.96
2017-08-12T12:10:35.647Z,100667.48
2017-08-12T12:13:04.311Z,100669.86
2017-08-12T12:15:33.085Z,100669.92
2017-08-12T12:18:01.867Z,100666.97
2017-08-12T12:20:30.586Z,100659.96
2017-08-12T12:23:02.711Z,100659.16
2017-08-12T12:25:31.293Z,100656.16
2017-08-12T12:28:00.049Z,100660.52
2017-08-12T12:30:28.701Z,100657.98
2017-08-12T12:32:57.926Z,100656.81
2017-08-12T12:35:27.170Z,100662.83
2017-08-12T12:37:55.859Z,100659.00
2017-08-12T12:40:24.649Z,100658.94
2017-08-12T12:42:53.314Z,100660.77
2017-08-12T12:45:22.036Z,100659.06
2017-08-12T12:47:50.765Z,100658.64
2017-08-12T12:50:19.565Z,100660.77
2017-08-12T12:52:48.266Z,100660.83
2017-08-12T12:55:16.986Z,100656.94
2017-08-12T12:57:45.694Z,100657.95
2017-08-12T13:00:15.231Z,100657.53
2017-08-12T13:02:44.028Z,100651.98
2017-08-12T13:05:12.753Z,100655.47
2017-08-12T13:07:41.911Z,100648.86
2017-08-12T13:10:11.347Z,100652.41
2017-08-12T13:12:40.274Z,100653.22
2017-08-12T13:15:09.076Z,100652.81
2017-08-12T13:17:37.867Z,100646.67
2017-08-12T13:20:06.554Z,100639.84
2017-08-12T13:22:35.330Z,100645.85
2017-08-12T13:25:04.036Z,100645.73
2017-08-12T13:27:33.003Z,100643.20
2017-08-12T13:30:02.842Z,100643.13
2017-08-12T13:32:31.304Z,100640.13
2017-08-12T13:35:00.852Z,100645.26
2017-08-12T13:37:29.558Z,100643.55
2017-08-12T13:39:58.343Z,100639.59
2017-08-12T13:42:27.969Z,100643.90
2017-08-12T13:44:57.332Z,100641.77
2017-08-12T13:47:26.388Z,100645.73
2017-08-12T13:49:55.240Z,100641.77
2017-08-12T13:52:25.319Z,100643.48
2017-08-12T13:54:54.040Z,100643.02
2017-08-12T13:57:23.475Z,100640.36
2017-08-12T13:59:52.421Z,100640.70
2017-08-12T14:02:21.527Z,100633.74
2017-08-12T14:04:50.402Z,100633.27
2017-08-12T14:07:19.413Z,100633.69
2017-08-12T14:09:48.259Z,100632.39
2017-08-12T14:12:17.361Z,100631.09
2017-08-12T14:14:46.236Z,100630.14
2017-08-12T14:17:15.266Z,100631.82
2017-08-12T14:19:44.330Z,100631.82
2017-08-12T14:22:13.309Z,100637.77
2017-08-12T14:24:42.330Z,100633.47
2017-08-12T14:27:11.337Z,100633.06
2017-08-12T14:29:40.257Z,100633.47
2017-08-12T14:32:09.364Z,100630.05
2017-08-12T14:34:38.310Z,100630.94
2017-08-12T14:37:07.270Z,100635.66
2017-08-12T14:39:37.071Z,100630.94
2017-08-12T14:42:05.970Z,100630.46
2017-08-12T14:44:34.995Z,100635.78
2017-08-12T14:47:04.021Z,100635.33
2017-08-12T14:49:33.258Z,100634.03
2017-08-12T14:52:02.285Z,100636.19
2017-08-12T14:54:31.295Z,100629.73
2017-08-12T14:57:00.342Z,100632.70
2017-08-12T14:59:29.165Z,100623.63
2017-08-12T15:01:58.168Z,100624.45
2017-08-12T15:04:27.269Z,100619.67
2017-08-12T15:06:56.265Z,100629.58
2017-08-12T15:09:25.342Z,100625.21
2017-08-12T15:11:54.850Z,100625.21
2017-08-12T15:14:23.833Z,100624.33
2017-08-12T15:16:52.660Z,100625.21
2017-08-12T15:19:22.057Z,100624.33
2017-08-12T15:21:51.097Z,100623.03
2017-08-12T15:24:20.110Z,100617.77
2017-08-12T15:26:49.053Z,100619.42
2017-08-12T15:29:18.089Z,100627.56
2017-08-12T15:31:46.881Z,100624.55
2017-08-12T15:34:16.144Z,100621.89
2017-08-12T15:36:45.848Z,100624.49
2017-08-12T15:39:14.901Z,100626.80
2017-08-12T15:41:43.860Z,100628.92
2017-08-12T15:44:12.852Z,100625.44
2017-08-12T15:46:41.853Z,100625.44
2017-08-12T15:49:11.100Z,100624.55
2017-08-12T15:51:40.810Z,100621.61
2017-08-12T15:54:09.624Z,100623.66
2017-08-12T15:56:38.502Z,100619.77
2017-08-12T15:59:07.106Z,100620.13
2017-08-12T16:01:35.981Z,100619.65
2017-08-12T16:04:05.053Z,100620.77
2017-08-12T16:06:33.848Z,100618.98
2017-08-12T16:09:02.321Z,100618.17
2017-08-12T16:11:31.009Z,100620.64
2017-08-12T16:13:59.768Z,100622.32
2017-08-12T16:16:29.075Z,100621.49
2017-08-12T16:18:58.243Z,100627.03
2017-08-12T16:21:27.195Z,100620.89
2017-08-12T16:23:55.881Z,100622.95
2017-08-12T16:26:24.539Z,100626.38
2017-08-12T16:28:53.471Z,100625.91
2017-08-12T16:31:22.615Z,100634.86
2017-08-12T16:33:51.537Z,100637.75
2017-08-12T16:36:20.661Z,100640.70
2017-08-12T16:38:49.631Z,100635.44
2017-08-12T16:41:18.736Z,100635.80
2017-08-12T16:43:47.697Z,100643.91
2017-08-12T16:46:16.657Z,100645.14
2017-08-12T16:48:45.660Z,100645.08
2017-08-12T16:51:14.689Z,100648.44
2017-08-12T16:53:43.663Z,100664.08
2017-08-12T16:56:12.608Z,100667.50
2017-08-12T16:58:41.460Z,100665.25
2017-08-12T17:01:10.583Z,100660.53
2017-08-12T17:03:39.602Z,100664.42
2017-08-12T17:06:08.599Z,100659.30
2017-08-12T17:08:37.675Z,100666.20
2017-08-12T17:11:06.693Z,100662.78
2017-08-12T17:13:35.602Z,100660.24
2017-08-12T17:16:04.445Z,100661.13
2017-08-12T17:18:33.476Z,100664.61
2017-08-12T17:21:02.379Z,100664.61
2017-08-12T17:23:31.139Z,100661.95
2017-08-12T17:26:00.783Z,100668.03
2017-08-12T17:28:30.453Z,100670.63
2017-08-12T17:30:59.566Z,100672.75
2017-08-12T17:33:28.042Z,100678.36
2017-08-12T17:35:57.746Z,100680.54
2017-08-12T17:38:26.440Z,100680.89
2017-08-12T17:40:55.253Z,100681.30
2017-08-12T17:43:24.466Z,100678.23
2017-08-12T17:45:53.243Z,100678.23
2017-08-12T17:48:22.273Z,100684.61
2017-08-12T17:50:51.375Z,100687.20
2017-08-12T17:53:20.098Z,100689.51
2017-08-12T17:55:48.838Z,100687.45
2017-08-12T17:58:17.681Z,100692.64
2017-08-12T18:00:46.649Z,100690.05
2017-08-12T18:03:15.587Z,100687.16
2017-08-12T18:05:44.289Z,100692.23
2017-08-12T18:08:13.079Z,100688.87
2017-08-12T18:10:42.181Z,100686.33
2017-08-12T18:13:11.768Z,100685.51
2017-08-12T18:15:40.524Z,100683.73
2017-08-12T18:18:09.635Z,100686.02
2017-08-12T18:20:38.595Z,100694.75
2017-08-12T18:23:07.448Z,100704.38
2017-08-12T18:25:36.313Z,100713.11
2017-08-12T18:28:05.157Z,100714.05
2017-08-12T18:30:33.939Z,100713.00
2017-08-12T18:33:06.767Z,100718.31
2017-08-12T18:35:35.490Z,100719.28
2017-08-12T18:38:04.206Z,100717.88
2017-08-12T18:40:32.969Z,100710.74
2017-08-12T18:43:04.614Z,100717.77
2017-08-12T18:45:36.410Z,100726.17
2017-08-12T18:48:06.311Z,100727.72
2017-08-12T18:50:35.355Z,100735.69
2017-08-12T18:53:07.082Z,100742.47
2017-08-12T18:55:36.168Z,100748.34
2017-08-12T18:58:05.763Z,100756.54
2017-08-12T19:00:34.647Z,100761.08
2017-08-12T19:03:06.328Z,100769.59
2017-08-12T19:05:35.278Z,100769.95
2017-08-12T19:08:04.038Z,100774.91
2017-08-12T19:10:32.823Z,100768.27
2017-08-12T19:13:05.300Z,100771.98
2017-08-12T19:15:34.044Z,100777.48
2017-08-12T19:18:03.831Z,100781.19
2017-08-12T19:20:32.630Z,100786.67
2017-08-12T19:23:04.143Z,100783.02
2017-08-12T19:25:33.245Z,100789.58
2017-08-12T19:28:02.120Z,100791.98
2017-08-12T19:30:30.851Z,100785.29
2017-08-12T19:33:01.531Z,100788.05
2017-08-12T19:35:31.163Z,100789.61
2017-08-12T19:37:59.835Z,100791.08
2017-08-12T19:40:28.539Z,100790.78
2017-08-12T19:42:57.269Z,100793.19
2017-08-12T19:45:26.235Z,100793.02
2017-08-12T19:47:55.136Z,100794.44
2017-08-12T19:50:23.859Z,100795.59
2017-08-12T19:52:52.512Z,100800.15
2017-08-12T19:55:22.233Z,100801.67
2017-08-12T19:57:51.008Z,100794.89
2017-08-12T20:00:19.733Z,100796.87
2017-08-12T20:02:49.503Z,100797.19
2017-08-12T20:05:18.315Z,100791.34
2017-08-12T20:07:47.107Z,100784.27
2017-08-12T20:10:20.282Z,100781.51
2017-08-12T20:12:48.961Z,100792.86
2017-08-12T20:15:17.936Z,100798.73
2017-08-12T20:17:46.832Z,100811.50
2017-08-12T20:20:15.408Z,100807.33
2017-08-12T20:22:44.203Z,100800.91
2017-08-12T20:25:12.923Z,100798.66
2017-08-12T20:27:41.741Z,100813.48
2017-08-12T20:30:10.458Z,100810.55
2017-08-12T20:32:39.214Z,100819.48
2017-08-12T20:35:07.870Z,100822.06
2017-08-12T20:37:37.531Z,100818.23
2017-08-12T20:40:06.276Z,100815.81
2017-08-12T20:42:35.006Z,100823.23
2017-08-12T20:45:03.679Z,100822.58
2017-08-12T20:47:32.696Z,100826.47
2017-08-12T20:50:03.095Z,100823.87
2017-08-12T20:52:31.882Z,100824.15
2017-08-12T20:55:00.624Z,100823.27
2017-08-12T20:57:30.419Z,100823.27
2017-08-12T20:59:59.053Z,100825.75
2017-08-12T21:02:28.299Z,100824.15
2017-08-12T21:04:57.008Z,100831.92
2017-08-12T21:07:25.672Z,100835.03
2017-08-12T21:09:54.533Z,100836.38
2017-08-12T21:12:23.200Z,100839.91
2017-08-12T21:14:51.936Z,100846.95
2017-08-12T21:17:20.647Z,100840.19
2017-08-12T21:19:49.072Z,100839.02
2017-08-12T21:22:18.741Z,100833.48
2017-08-12T21:24:47.515Z,100833.59
2017-08-12T21:27:16.392Z,100840.27
2017-08-12T21:29:45.099Z,100845.28
2017-08-12T21:32:13.574Z,100848.75
2017-08-12T21:34:43.768Z,100849.11
2017-08-12T21:37:12.492Z,100852.42
2017-08-12T21:39:42.361Z,100846.23
2017-08-12T21:42:11.366Z,100842.83
2017-08-12T21:44:40.023Z,100848.42
2017-08-12T21:47:09.694Z,100854.41
2017-08-12T21:49:39.219Z,100861.19
2017-08-12T21:52:07.770Z,100877.09
2017-08-12T21:54:36.868Z,100870.67
2017-08-12T21:57:05.675Z,100870.92
2017-08-12T21:59:35.010Z,100875.33
2017-08-12T22:02:03.714Z,100875.48
2017-08-12T22:04:32.530Z,100875.54
2017-08-12T22:07:01.227Z,100873.91
2017-08-12T22:09:30.005Z,100865.78
2017-08-12T22:11:59.602Z,100870.13
2017-08-12T22:14:28.270Z,100872.77
2017-08-12T22:16:57.952Z,100875.06
2017-08-12T22:19:26.773Z,100876.26
2017-08-12T22:21:56.287Z,100867.61
2017-08-12T22:24:25.037Z,100876.37
2017-08-12T22:26:54.270Z,100878.73
2017-08-12T22:29:23.005Z,100868.47
2017-08-12T22:31:51.721Z,100872.57
2017-08-12T22:34:20.457Z,100873.50
2017-08-12T22:36:49.218Z,100879.67
2017-08-12T22:39:17.927Z,100877.16
2017-08-12T22:41:47.411Z,100873.56
2017-08-12T22:44:16.172Z,100883.19
2017-08-12T22:46:44.853Z,100889.25
2017-08-12T22:49:13.705Z,100885.16
2017-08-12T22:51:43.251Z,100886.53
2017-08-12T22:54:11.997Z,100885.44
2017-08-12T22:56:40.780Z,100889.84
2017-08-12T22:59:09.589Z,100886.27
2017-08-12T23:01:38.340Z,100887.36
2017-08-12T23:04:06.991Z,100890.47
2017-08-12T23:06:35.992Z,100889.53
2017-08-12T23:09:04.039Z,100883.27
2017-08-12T23:11:32.791Z,100884.56
2017-08-12T23:14:01.448Z,100880.34
2017-08-12T23:16:30.493Z,100883.40
2017-08-12T23:18:59.196Z,100887.02
2017-08-12T23:21:27.670Z,100880.66
2017-08-12T23:23:56.384Z,100879.52
2017-08-12T23:26:25.091Z,100883.92
2017-08-12T23:28:53.936Z,100882.28
2017-08-12T23:31:23.394Z,100888.80
2017-08-12T23:33:52.139Z,100892.73
2017-08-12T23:36:20.808Z,100894.96
2017-08-12T23:38:49.511Z,100894.59
2017-08-12T23:41:18.201Z,100893.30
2017-08-12T23:43:46.977Z,100897.34
2017-08-12T23:46:15.443Z,100891.28
2017-08-12T23:48:43.955Z,100893.30
2017-08-12T23:51:12.710Z,100896.98
2017-08-12T23:53:41.487Z,100892.89
2017-08-12T23:56:10.125Z,100896.20
2017-08-12T23:58:38.897Z,100896.30
